PWSweather.com
Personal Weather Stations
Station Observations
KNJOAKLA6
Oakland, NJ 07436

Oakland, NJ 07436

Lat: 41.041, Lon: -74.231

Elevation: 280

Station Type: Davis VP 2

http://stratacolorado.com/oaknjwx/

Latest ConditionsUpdated 4:30:00 AM EDT Tuesday, Jul 29, 2014
Currently Today's Max Today's Min Today's Average
Temperature 61.1°F16.2°C 65.1°F18.4°C 61.1°F16.2°C 63.3°F17.4°C
Dew Point 55.6°F13.1°C 58.8°F14.9°C 55.6°F13.1°C 56.9°F13.8°C
Winds Calm Calm 5.0 mph 8.0 kmh - 1.4 mph 2.3 kmh
Wind Gusts 3.0 mph4.8 kmh 15.0 mph24.1 kmh - -
Humidity 82% 82% 79% 80%
Pressure 29.74 in1007.1 mb 29.74 in1007.1 mb 29.67 in1004.7 mb -
Hour Temp Dew Point Humidity Winds Wind Gusts Pressure Precip Precip Rate Daily Precip Total
04:30 AM 61.1°F16.2°C 55.6°F13.1°C 82% Calm Calm 3.0 mph4.8 kmh 29.74 in1007.1 mb 0.00 in0.0 mm 0.00 in/hr0.0 mm/hr 0.00 in0.0 mm
04:20 AM 61.3°F16.3°C 55.8°F13.2°C 82% Calm Calm 2.0 mph3.2 kmh 29.73 in1006.8 mb 0.00 in0.0 mm 0.00 in/hr0.0 mm/hr 0.00 in0.0 mm
04:10 AM 61.5°F16.4°C 55.6°F13.1°C 81% Calm Calm 4.0 mph6.4 kmh 29.73 in1006.8 mb 0.00 in0.0 mm 0.00 in/hr0.0 mm/hr 0.00 in0.0 mm
04:00 AM 61.8°F16.6°C 55.9°F13.3°C 81% Calm Calm 5.0 mph8.0 kmh 29.73 in1006.8 mb 0.00 in0.0 mm 0.00 in/hr0.0 mm/hr 0.00 in0.0 mm
03:50 AM 61.9°F16.6°C 55.7°F13.2°C 80% Calm Calm 5.0 mph8.0 kmh 29.73 in1006.8 mb 0.00 in0.0 mm 0.00 in/hr0.0 mm/hr 0.00 in0.0 mm
03:40 AM 62.1°F16.7°C 55.9°F13.3°C 80% 4.0 mph NNE6.4 kmh NNE 8.0 mph12.9 kmh 29.73 in1006.8 mb 0.00 in0.0 mm 0.00 in/hr0.0 mm/hr 0.00 in0.0 mm
03:30 AM 62.2°F16.8°C 56.0°F13.3°C 80% 1.0 mph E1.6 kmh E 12.0 mph19.3 kmh 29.72 in1006.4 mb 0.00 in0.0 mm 0.00 in/hr0.0 mm/hr 0.00 in0.0 mm
03:20 AM 62.4°F16.9°C 56.2°F13.4°C 80% 1.0 mph NNW1.6 kmh NNW 7.0 mph11.3 kmh 29.72 in1006.4 mb 0.00 in0.0 mm 0.00 in/hr0.0 mm/hr 0.00 in0.0 mm
03:10 AM 62.6°F17.0°C 56.3°F13.5°C 80% Calm Calm 6.0 mph9.7 kmh 29.72 in1006.4 mb 0.00 in0.0 mm 0.00 in/hr0.0 mm/hr 0.00 in0.0 mm
03:00 AM 62.7°F17.1°C 56.4°F13.6°C 80% Calm Calm 11.0 mph17.7 kmh 29.71 in1006.1 mb 0.00 in0.0 mm 0.00 in/hr0.0 mm/hr 0.00 in0.0 mm
02:50 AM 62.9°F17.2°C 56.6°F13.7°C 80% 2.0 mph WSW3.2 kmh WSW 11.0 mph17.7 kmh 29.71 in1006.1 mb 0.00 in0.0 mm 0.00 in/hr0.0 mm/hr 0.00 in0.0 mm
02:40 AM 62.9°F17.2°C 56.6°F13.7°C 80% 1.0 mph NW1.6 kmh NW 10.0 mph16.1 kmh 29.71 in1006.1 mb 0.00 in0.0 mm 0.00 in/hr0.0 mm/hr 0.00 in0.0 mm
02:30 AM 63.1°F17.3°C 56.8°F13.8°C 80% 2.0 mph N3.2 kmh N 13.0 mph20.9 kmh 29.71 in1006.1 mb 0.00 in0.0 mm 0.00 in/hr0.0 mm/hr 0.00 in0.0 mm
02:20 AM 63.2°F17.3°C 56.6°F13.7°C 79% 1.0 mph NW1.6 kmh NW 10.0 mph16.1 kmh 29.71 in1006.1 mb 0.00 in0.0 mm 0.00 in/hr0.0 mm/hr 0.00 in0.0 mm
02:10 AM 63.3°F17.4°C 56.7°F13.7°C 79% 4.0 mph NNW6.4 kmh NNW 10.0 mph16.1 kmh 29.71 in1006.1 mb 0.00 in0.0 mm 0.00 in/hr0.0 mm/hr 0.00 in0.0 mm
02:00 AM 63.5°F17.5°C 56.9°F13.8°C 79% 2.0 mph NW3.2 kmh NW 8.0 mph12.9 kmh 29.71 in1006.1 mb 0.00 in0.0 mm 0.00 in/hr0.0 mm/hr 0.00 in0.0 mm
01:50 AM 63.7°F17.6°C 57.1°F13.9°C 79% 1.0 mph NW1.6 kmh NW 7.0 mph11.3 kmh 29.71 in1006.1 mb 0.00 in0.0 mm 0.00 in/hr0.0 mm/hr 0.00 in0.0 mm
01:40 AM 63.9°F17.7°C 57.3°F14.1°C 79% Calm Calm 8.0 mph12.9 kmh 29.70 in1005.8 mb 0.00 in0.0 mm 0.00 in/hr0.0 mm/hr 0.00 in0.0 mm
01:30 AM 64.1°F17.8°C 57.5°F14.2°C 79% Calm Calm 10.0 mph16.1 kmh 29.70 in1005.8 mb 0.00 in0.0 mm 0.00 in/hr0.0 mm/hr 0.00 in0.0 mm
01:20 AM 64.2°F17.9°C 57.6°F14.2°C 79% 1.0 mph W1.6 kmh W 9.0 mph14.5 kmh 29.69 in1005.4 mb 0.00 in0.0 mm 0.00 in/hr0.0 mm/hr 0.00 in0.0 mm
01:10 AM 64.3°F17.9°C 57.7°F14.3°C 79% 1.0 mph WNW1.6 kmh WNW 11.0 mph17.7 kmh 29.69 in1005.4 mb 0.00 in0.0 mm 0.00 in/hr0.0 mm/hr 0.00 in0.0 mm
01:00 AM 64.4°F18.0°C 57.8°F14.3°C 79% 2.0 mph N3.2 kmh N 14.0 mph22.5 kmh 29.69 in1005.4 mb 0.00 in0.0 mm 0.00 in/hr0.0 mm/hr 0.00 in0.0 mm
12:50 AM 64.6°F18.1°C 58.3°F14.6°C 80% 2.0 mph WSW3.2 kmh WSW 12.0 mph19.3 kmh 29.68 in1005.1 mb 0.00 in0.0 mm 0.00 in/hr0.0 mm/hr 0.00 in0.0 mm
12:40 AM 64.6°F18.1°C 57.9°F14.4°C 79% 4.0 mph N6.4 kmh N 14.0 mph22.5 kmh 29.68 in1005.1 mb 0.00 in0.0 mm 0.00 in/hr0.0 mm/hr 0.00 in0.0 mm
12:30 AM 64.8°F18.2°C 58.5°F14.7°C 80% Calm Calm 12.0 mph19.3 kmh 29.67 in1004.7 mb 0.00 in0.0 mm 0.00 in/hr0.0 mm/hr 0.00 in0.0 mm
12:20 AM 64.9°F18.3°C 58.2°F14.6°C 79% 5.0 mph 8.0 kmh 14.0 mph22.5 kmh 29.67 in1004.7 mb 0.00 in0.0 mm 0.00 in/hr0.0 mm/hr 0.00 in0.0 mm
12:10 AM 64.9°F18.3°C 58.2°F14.6°C 79% 2.0 mph NW3.2 kmh NW 11.0 mph17.7 kmh 29.67 in1004.7 mb 0.00 in0.0 mm 0.00 in/hr0.0 mm/hr 0.00 in0.0 mm
12:00 AM 65.1°F18.4°C 58.8°F14.9°C 80% 2.0 mph NW3.2 kmh NW 15.0 mph24.1 kmh 29.67 in1004.7 mb 0.00 in0.0 mm 0.00 in/hr0.0 mm/hr 0.39 in9.9 mm